createdAt,value
2023-09-14T00:04:59.252Z,20.30
2023-09-14T00:10:00.559Z,20.21
2023-09-14T00:15:01.842Z,20.01
2023-09-14T00:20:04.991Z,19.81
2023-09-14T00:25:06.361Z,19.99
2023-09-14T00:30:07.597Z,19.63
2023-09-14T00:35:08.901Z,19.73
2023-09-14T00:40:10.099Z,19.69
2023-09-14T00:45:11.464Z,19.71
2023-09-14T00:50:16.220Z,19.71
2023-09-14T00:55:19.011Z,19.66
2023-09-14T01:00:20.570Z,19.83
2023-09-14T01:05:22.106Z,19.65
2023-09-14T01:10:28.167Z,19.60
2023-09-14T01:15:30.041Z,19.68
2023-09-14T01:20:32.069Z,19.54
2023-09-14T01:25:33.322Z,19.19
2023-09-14T01:30:34.537Z,19.22
2023-09-14T01:35:36.507Z,19.36
2023-09-14T01:40:37.784Z,19.47
2023-09-14T01:45:39.028Z,18.98
2023-09-14T01:50:40.224Z,19.28
2023-09-14T01:55:41.481Z,19.25
2023-09-14T02:00:42.824Z,18.91
2023-09-14T02:05:44.076Z,19.10
2023-09-14T02:10:45.366Z,19.16
2023-09-14T02:15:46.637Z,19.13
2023-09-14T02:20:47.905Z,18.91
2023-09-14T02:25:49.112Z,19.02
2023-09-14T02:30:50.358Z,18.79
2023-09-14T02:35:52.782Z,18.92
2023-09-14T02:40:54.050Z,18.73
2023-09-14T02:45:55.371Z,18.68
2023-09-14T02:50:56.657Z,18.76
2023-09-14T02:55:57.956Z,18.77
2023-09-14T03:00:59.330Z,18.59
2023-09-14T03:06:00.616Z,18.59
2023-09-14T03:11:01.839Z,18.45
2023-09-14T03:16:03.222Z,18.31
2023-09-14T03:21:04.671Z,17.86
2023-09-14T03:26:06.107Z,17.85
2023-09-14T03:31:07.984Z,17.93
2023-09-14T03:36:09.233Z,17.82
2023-09-14T03:41:12.070Z,18.12
2023-09-14T03:46:13.428Z,18.11
2023-09-14T03:51:14.870Z,18.19
2023-09-14T03:56:16.182Z,18.53
2023-09-14T04:01:17.528Z,18.43
2023-09-14T04:06:18.924Z,18.38
2023-09-14T04:11:20.295Z,18.58
2023-09-14T04:16:21.697Z,18.58
2023-09-14T04:21:23.054Z,18.67
2023-09-14T04:26:26.042Z,18.46
2023-09-14T04:31:27.326Z,18.73
2023-09-14T04:36:28.704Z,18.81
2023-09-14T04:41:31.688Z,18.76
2023-09-14T04:46:33.063Z,18.57
2023-09-14T04:51:34.269Z,18.29
2023-09-14T04:56:35.849Z,18.08
2023-09-14T05:01:37.230Z,18.26
2023-09-14T05:06:38.633Z,18.31
2023-09-14T05:11:39.958Z,18.31
2023-09-14T05:16:41.246Z,18.31
2023-09-14T05:21:42.503Z,18.33
2023-09-14T05:26:43.781Z,18.35
2023-09-14T05:31:45.182Z,18.44
2023-09-14T05:36:47.353Z,18.37
2023-09-14T05:41:51.323Z,18.23
2023-09-14T05:46:53.037Z,18.31
2023-09-14T05:51:54.696Z,18.35
2023-09-14T05:56:55.976Z,17.89
2023-09-14T06:01:57.239Z,17.94
2023-09-14T06:06:58.571Z,17.82
2023-09-14T06:12:00.773Z,18.11
2023-09-14T06:17:02.086Z,18.16
2023-09-14T06:22:03.565Z,18.20
2023-09-14T06:27:04.816Z,18.59
2023-09-14T06:32:06.155Z,18.75
2023-09-14T06:37:07.422Z,18.90
2023-09-14T06:42:08.765Z,18.86
2023-09-14T06:47:10.080Z,18.48
2023-09-14T06:52:11.424Z,18.13
2023-09-14T06:57:12.677Z,18.62
2023-09-14T07:02:14.211Z,18.85
2023-09-14T07:07:15.533Z,18.98
2023-09-14T07:12:16.767Z,18.65
2023-09-14T07:17:18.001Z,18.76
2023-09-14T07:22:19.479Z,19.03
2023-09-14T07:27:22.888Z,18.92
2023-09-14T07:32:24.417Z,19.22
2023-09-14T07:37:25.749Z,19.63
2023-09-14T07:42:26.990Z,19.91
2023-09-14T07:47:30.931Z,20.34
2023-09-14T07:52:32.326Z,20.83
2023-09-14T07:57:33.536Z,20.82
2023-09-14T08:02:34.923Z,20.91
2023-09-14T08:07:36.243Z,20.80
2023-09-14T08:12:38.690Z,20.65
2023-09-14T08:17:40.041Z,21.24
2023-09-14T08:22:41.312Z,21.22
2023-09-14T08:27:42.577Z,20.84
2023-09-14T08:32:44.139Z,21.09
2023-09-14T08:37:45.652Z,21.43
2023-09-14T08:42:48.743Z,21.19
2023-09-14T08:47:50.157Z,21.69
2023-09-14T08:52:51.462Z,21.30
2023-09-14T08:57:52.790Z,21.06
2023-09-14T09:02:54.169Z,20.98
2023-09-14T09:07:59.904Z,20.68
2023-09-14T09:13:03.383Z,20.64
2023-09-14T09:18:08.728Z,20.71
2023-09-14T09:23:10.184Z,20.79
2023-09-14T09:28:11.512Z,21.18
2023-09-14T09:33:13.472Z,20.65
2023-09-14T09:38:14.944Z,21.12
2023-09-14T09:43:16.305Z,21.43
2023-09-14T09:48:17.690Z,21.49
2023-09-14T09:53:18.963Z,21.49
2023-09-14T09:58:22.101Z,20.99
2023-09-14T10:03:23.582Z,21.13
2023-09-14T10:08:25.048Z,21.47
2023-09-14T10:13:26.386Z,20.99
2023-09-14T10:18:29.203Z,21.26
2023-09-14T10:23:30.469Z,21.63
2023-09-14T10:28:31.785Z,21.58
2023-09-14T10:33:33.899Z,21.43
2023-09-14T10:38:35.939Z,21.42
2023-09-14T10:43:37.155Z,21.44
2023-09-14T10:48:53.761Z,21.68
2023-09-14T10:53:55.069Z,21.70
2023-09-14T10:58:56.382Z,21.82
2023-09-14T11:03:57.681Z,21.99
2023-09-14T11:09:00.022Z,22.28
2023-09-14T11:14:03.177Z,21.87
2023-09-14T11:19:06.041Z,21.87
2023-09-14T11:24:09.321Z,22.24
2023-09-14T11:29:12.711Z,22.36
2023-09-14T11:34:18.931Z,22.57
2023-09-14T11:39:21.410Z,23.07
2023-09-14T11:44:44.344Z,23.38
2023-09-14T11:49:48.538Z,22.92
2023-09-14T11:54:52.368Z,23.17
2023-09-14T11:59:53.915Z,23.48
2023-09-14T12:04:55.188Z,23.47
2023-09-14T12:09:56.535Z,23.66
2023-09-14T12:15:05.460Z,24.77
2023-09-14T12:20:06.660Z,25.20
2023-09-14T12:25:07.916Z,24.74
2023-09-14T12:30:09.162Z,24.49
2023-09-14T12:35:11.259Z,24.08
2023-09-14T12:40:13.940Z,23.84
2023-09-14T12:45:18.827Z,24.23
2023-09-14T12:50:20.204Z,24.01
2023-09-14T12:55:21.441Z,24.53
2023-09-14T13:00:22.793Z,24.64
2023-09-14T13:05:24.122Z,25.31
2023-09-14T13:10:25.593Z,25.64
2023-09-14T13:15:26.967Z,25.56
2023-09-14T13:20:29.462Z,26.21
2023-09-14T13:25:30.788Z,26.75
2023-09-14T13:30:32.320Z,26.87
2023-09-14T13:35:34.171Z,26.60
2023-09-14T13:40:35.603Z,27.24
2023-09-14T13:45:36.864Z,27.42
2023-09-14T13:50:38.140Z,26.95
2023-09-14T13:55:39.407Z,26.25
2023-09-14T14:00:41.042Z,26.98
2023-09-14T14:05:42.478Z,26.96
2023-09-14T14:10:43.710Z,26.87
2023-09-14T14:15:46.048Z,27.33
2023-09-14T14:20:47.436Z,27.21
2023-09-14T14:25:49.012Z,27.20
2023-09-14T14:30:50.397Z,27.14
2023-09-14T14:35:51.718Z,26.94
2023-09-14T14:41:21.369Z,27.13
2023-09-14T14:46:14.329Z,27.76
2023-09-14T14:51:15.802Z,27.44
2023-09-14T14:56:17.507Z,27.20
2023-09-14T15:01:18.770Z,26.79
2023-09-14T15:06:20.468Z,26.86
2023-09-14T15:11:21.740Z,26.69
2023-09-14T15:16:23.004Z,26.85
2023-09-14T15:21:24.396Z,26.43
2023-09-14T15:26:26.420Z,26.22
2023-09-14T15:31:27.748Z,25.93
2023-09-14T15:36:30.028Z,26.15
2023-09-14T15:41:31.403Z,25.95
2023-09-14T15:46:33.727Z,25.98
2023-09-14T15:51:35.345Z,25.22
2023-09-14T15:56:36.635Z,24.99
2023-09-14T16:01:38.079Z,24.71
2023-09-14T16:06:39.446Z,24.34
2023-09-14T16:11:40.829Z,24.23
2023-09-14T16:16:42.090Z,24.18
2023-09-14T16:21:44.738Z,24.14
2023-09-14T16:26:46.253Z,24.10
2023-09-14T16:31:47.508Z,24.31
2023-09-14T16:36:48.860Z,24.13
2023-09-14T16:41:50.096Z,24.13
2023-09-14T16:46:51.640Z,24.09
2023-09-14T16:51:53.529Z,24.12
2023-09-14T16:56:54.966Z,23.72
2023-09-14T17:01:56.349Z,23.67
2023-09-14T17:06:57.839Z,23.76
2023-09-14T17:11:59.174Z,23.69
2023-09-14T17:17:00.534Z,23.52
2023-09-14T17:22:06.051Z,23.32
2023-09-14T17:27:09.482Z,23.28
2023-09-14T17:32:10.737Z,23.07
2023-09-14T17:37:11.953Z,22.92
2023-09-14T17:42:13.239Z,22.76
2023-09-14T17:47:14.604Z,22.18
2023-09-14T17:52:16.516Z,21.83
2023-09-14T17:57:17.801Z,21.67
2023-09-14T18:02:19.129Z,21.69
2023-09-14T18:07:20.461Z,21.69
2023-09-14T18:12:21.809Z,21.73
2023-09-14T18:17:23.112Z,21.70
2023-09-14T18:22:24.391Z,21.41
2023-09-14T18:27:25.745Z,21.16
2023-09-14T18:32:27.029Z,21.25
2023-09-14T18:37:28.297Z,21.34
2023-09-14T18:42:29.585Z,21.32
2023-09-14T18:47:31.622Z,21.29
2023-09-14T18:52:32.971Z,21.11
2023-09-14T18:57:34.287Z,21.03
2023-09-14T19:02:35.703Z,21.11
2023-09-14T19:07:37.086Z,21.18
2023-09-14T19:12:38.402Z,21.15
2023-09-14T19:17:39.803Z,20.89
2023-09-14T19:22:41.219Z,21.20
2023-09-14T19:27:42.584Z,20.70
2023-09-14T19:32:44.000Z,20.60
2023-09-14T19:37:45.541Z,20.51
2023-09-14T19:42:46.846Z,20.80
2023-09-14T19:47:48.193Z,20.64
2023-09-14T19:52:49.523Z,20.52
2023-09-14T19:57:50.812Z,20.64
2023-09-14T20:02:52.157Z,20.28
2023-09-14T20:07:53.488Z,20.26
2023-09-14T20:12:54.765Z,20.17
2023-09-14T20:17:56.147Z,20.30
2023-09-14T20:22:58.617Z,20.22
2023-09-14T20:27:59.943Z,20.23
2023-09-14T20:33:01.341Z,20.02
2023-09-14T20:38:02.615Z,19.81
2023-09-14T20:43:04.490Z,19.28
2023-09-14T20:48:07.914Z,19.41
2023-09-14T20:53:09.241Z,19.38
2023-09-14T20:58:10.851Z,19.42
2023-09-14T21:03:12.370Z,19.41
2023-09-14T21:08:13.678Z,19.17
2023-09-14T21:13:14.968Z,18.77
2023-09-14T21:18:16.257Z,19.15
2023-09-14T21:23:18.325Z,18.99
2023-09-14T21:28:19.841Z,19.02
2023-09-14T21:33:21.089Z,18.72
2023-09-14T21:38:22.367Z,18.49
2023-09-14T21:43:24.100Z,18.13
2023-09-14T21:48:25.634Z,18.12
2023-09-14T21:53:26.951Z,18.07
2023-09-14T21:58:28.323Z,18.09
2023-09-14T22:03:44.905Z,18.52
2023-09-14T22:08:52.520Z,18.38
2023-09-14T22:13:53.789Z,18.20
2023-09-14T22:18:55.244Z,18.36
2023-09-14T22:23:56.622Z,18.58
2023-09-14T22:28:58.318Z,18.08
2023-09-14T22:33:59.629Z,18.30
2023-09-14T22:39:00.956Z,18.22
2023-09-14T22:44:02.289Z,18.18
2023-09-14T22:49:03.963Z,18.25
2023-09-14T22:54:05.335Z,17.98
2023-09-14T22:59:06.744Z,18.12
2023-09-14T23:04:08.003Z,17.94
2023-09-14T23:09:09.330Z,17.44
2023-09-14T23:14:10.743Z,17.53
2023-09-14T23:19:13.032Z,17.60
2023-09-14T23:24:14.270Z,17.51
2023-09-14T23:29:15.661Z,17.57
2023-09-14T23:34:16.995Z,17.56
2023-09-14T23:39:21.995Z,17.68
2023-09-14T23:44:23.267Z,17.79
2023-09-14T23:49:25.396Z,17.20
2023-09-14T23:54:30.057Z,17.07
2023-09-14T23:59:33.033Z,16.61
